Time;durP1;ratioP1;P1;durP2;ratioP2;P2;SDS_P1;SDS_P2;PMS_P1;PMS_P2;Temp;Humidity;BMP_temperature;BMP_pressure;BME280_temperature;BME280_humidity;BME280_pressure;Samples;Min_cycle;Max_cycle;Signal;HPM_P1;HPM_P2
2021/07/07 00:00:20;;;;;;;3.93;1.64;;;;;;;21.76;64.41;100490.68;462934;110;925079;-80
2021/07/07 00:01:24;;;;;;;3.41;1.89;;;;;;;21.77;64.51;100487.63;463098;111;922989;-79
2021/07/07 00:02:28;;;;;;;1.82;1.57;;;;;;;21.78;64.47;100489.25;462709;113;922454;-80
2021/07/07 00:03:32;;;;;;;6.05;1.89;;;;;;;21.79;64.46;100490.08;464333;111;922679;-80
2021/07/07 00:04:36;;;;;;;3.08;1.60;;;;;;;21.80;64.70;100497.30;462585;111;932081;-79
2021/07/07 00:05:39;;;;;;;4.06;1.66;;;;;;;21.79;64.46;100487.31;464413;110;924075;-77
2021/07/07 00:06:43;;;;;;;7.18;1.59;;;;;;;21.74;64.59;100488.19;463422;112;927999;-78
2021/07/07 00:07:47;;;;;;;8.01;1.45;;;;;;;21.70;64.91;100489.89;463290;110;922554;-79
2021/07/07 00:08:52;;;;;;;4.16;1.62;;;;;;;21.68;65.04;100486.57;462894;111;922468;-79
2021/07/07 00:09:56;;;;;;;3.67;1.93;;;;;;;21.67;65.19;100493.23;462529;113;922524;-79
2021/07/07 00:11:01;;;;;;;2.54;1.49;;;;;;;21.68;65.16;100497.67;463499;111;924043;-78
2021/07/07 00:12:05;;;;;;;6.01;1.49;;;;;;;21.68;64.96;100488.52;463045;110;931776;-80
2021/07/07 00:13:08;;;;;;;4.06;1.41;;;;;;;21.67;64.93;100487.69;462638;111;924203;-76
2021/07/07 00:14:12;;;;;;;2.22;1.60;;;;;;;21.67;64.91;100498.78;462388;113;924918;-79
2021/07/07 00:15:22;;;;;;;4.04;1.51;;;;;;;21.67;64.83;100493.23;461397;113;931602;-78
2021/07/07 00:16:27;;;;;;;3.50;1.62;;;;;;;21.65;64.89;100478.84;463118;113;923104;-79
2021/07/07 00:17:31;;;;;;;3.22;1.21;;;;;;;21.64;65.11;100486.34;464134;111;922467;-79
2021/07/07 00:18:35;;;;;;;2.81;1.64;;;;;;;21.65;65.12;100489.94;461765;113;925188;-79
2021/07/07 00:19:38;;;;;;;2.41;1.75;;;;;;;21.66;65.12;100490.77;462896;113;922990;-79
2021/07/07 00:20:46;;;;;;;1.70;1.36;;;;;;;21.67;64.90;100501.56;462657;110;922624;-79
2021/07/07 00:21:49;;;;;;;3.13;1.73;;;;;;;21.67;64.48;100493.23;463737;112;922499;-78
2021/07/07 00:22:53;;;;;;;7.18;1.64;;;;;;;21.65;64.64;100495.49;463274;111;923445;-80
2021/07/07 00:23:57;;;;;;;3.81;1.31;;;;;;;21.64;64.72;100494.66;464485;112;922579;-78
2021/07/07 00:25:01;;;;;;;3.49;1.41;;;;;;;21.65;64.80;100509.36;463106;112;930206;-78
2021/07/07 00:26:05;;;;;;;2.66;1.45;;;;;;;21.65;64.87;100503.81;453010;113;930531;-79
2021/07/07 00:27:11;;;;;;;2.98;1.50;;;;;;;21.66;64.70;100502.70;454133;113;922769;-78
2021/07/07 00:28:15;;;;;;;2.16;1.39;;;;;;;21.67;64.77;100504.33;462881;113;924034;-79
2021/07/07 00:29:18;;;;;;;6.53;2.17;;;;;;;21.68;64.73;100505.16;462443;113;924396;-77
2021/07/07 00:30:23;;;;;;;1.84;1.45;;;;;;;21.69;64.40;100504.05;463766;111;922602;-79
2021/07/07 00:31:27;;;;;;;1.76;1.55;;;;;;;21.69;64.32;100507.66;462416;113;930271;-80
2021/07/07 00:32:30;;;;;;;2.94;1.42;;;;;;;21.69;64.47;100512.38;462819;111;931763;-79
2021/07/07 00:33:34;;;;;;;2.87;1.41;;;;;;;21.67;64.81;100504.33;463056;111;930191;-79
2021/07/07 00:34:37;;;;;;;3.51;1.63;;;;;;;21.68;64.99;100506.00;463112;113;923701;-79
2021/07/07 00:35:41;;;;;;;3.06;1.32;;;;;;;21.68;65.09;100507.94;461785;113;924465;-78
2021/07/07 00:36:45;;;;;;;2.44;1.36;;;;;;;21.70;64.92;100505.72;463746;110;930726;-79
2021/07/07 00:37:49;;;;;;;2.11;1.39;;;;;;;21.70;64.71;100502.94;463016;111;924801;-78
2021/07/07 00:38:54;;;;;;;2.98;1.44;;;;;;;21.70;64.63;100501.00;462413;113;931192;-79
2021/07/07 00:39:57;;;;;;;3.31;1.57;;;;;;;21.70;64.45;100501.00;450635;116;923145;-76
2021/07/07 00:41:01;;;;;;;4.13;1.53;;;;;;;21.68;64.42;100500.45;452462;113;923207;-79
2021/07/07 00:42:05;;;;;;;8.34;1.44;;;;;;;21.69;64.13;100501.28;463247;113;931881;-79
2021/07/07 00:43:10;;;;;;;5.63;1.40;;;;;;;21.68;64.21;100506.00;455668;112;925210;-79
2021/07/07 00:44:15;;;;;;;2.94;1.48;;;;;;;21.67;64.49;100501.56;455935;113;924052;-79
2021/07/07 00:45:19;;;;;;;4.18;1.77;;;;;;;21.67;64.17;100503.53;464053;110;923156;-80
2021/07/07 00:46:23;;;;;;;2.54;1.28;;;;;;;21.64;64.24;100504.92;463804;111;922868;-79
2021/07/07 00:47:27;;;;;;;4.03;1.55;;;;;;;21.64;64.34;100507.70;463214;111;924773;-79
2021/07/07 00:48:30;;;;;;;4.53;1.16;;;;;;;21.65;64.26;100503.81;463929;113;924148;-79
2021/07/07 00:49:34;;;;;;;6.24;1.56;;;;;;;21.66;64.17;100508.25;463892;111;924104;-79
2021/07/07 00:50:41;;;;;;;2.77;1.43;;;;;;;21.65;64.39;100506.59;451324;114;932491;-80
2021/07/07 00:51:45;;;;;;;1.80;1.51;;;;;;;21.65;64.49;100512.14;451916;113;925342;-79
2021/07/07 00:52:49;;;;;;;2.88;1.31;;;;;;;21.67;64.59;100514.63;462813;113;926579;-78
2021/07/07 00:53:55;;;;;;;2.91;1.52;;;;;;;21.67;64.67;100506.31;450699;113;931666;-80
2021/07/07 00:55:01;;;;;;;3.03;1.65;;;;;;;21.68;64.64;100502.39;462322;112;932992;-80
2021/07/07 00:56:05;;;;;;;3.18;1.58;;;;;;;21.69;64.93;100512.38;462532;113;923922;-80
2021/07/07 00:57:11;;;;;;;4.05;1.55;;;;;;;21.70;65.24;100509.32;463043;113;926110;-79
2021/07/07 00:58:17;;;;;;;3.83;1.69;;;;;;;21.70;65.08;100506.55;450716;113;923810;-79
2021/07/07 00:59:21;;;;;;;2.51;1.42;;;;;;;21.71;64.83;100512.93;463252;111;924772;-80
2021/07/07 01:00:25;;;;;;;4.34;1.69;;;;;;;21.71;64.61;100510.16;463558;113;926381;-80
2021/07/07 01:01:29;;;;;;;3.77;1.38;;;;;;;21.71;64.59;100510.98;462283;111;924053;-79
2021/07/07 01:02:38;;;;;;;2.95;1.69;;;;;;;21.71;64.59;100513.76;462411;111;924012;-80
2021/07/07 01:03:42;;;;;;;6.35;1.71;;;;;;;21.72;64.53;100517.37;463958;111;922936;-80
2021/07/07 01:04:47;;;;;;;5.44;1.75;;;;;;;21.74;64.26;100515.94;462680;111;922375;-80
2021/07/07 01:05:50;;;;;;;7.74;2.06;;;;;;;21.74;64.37;100515.11;462627;110;924034;-79
2021/07/07 01:06:57;;;;;;;5.42;1.61;;;;;;;21.74;64.38;100521.49;462743;113;923143;-79
2021/07/07 01:08:01;;;;;;;2.64;1.48;;;;;;;21.75;64.33;100528.70;463949;110;924067;-80
2021/07/07 01:09:05;;;;;;;2.41;1.47;;;;;;;21.78;64.23;100521.73;462775;111;923997;-79
2021/07/07 01:10:12;;;;;;;2.72;1.34;;;;;;;21.79;64.00;100523.39;462747;113;922522;-80
2021/07/07 01:11:16;;;;;;;6.99;1.39;;;;;;;21.79;63.93;100527.00;462105;111;922534;-80
2021/07/07 01:12:20;;;;;;;3.66;1.60;;;;;;;21.81;63.78;100530.32;463810;110;923265;-84
2021/07/07 01:13:23;;;;;;;3.48;1.48;;;;;;;21.81;63.63;100530.32;462468;113;923030;-80
2021/07/07 01:14:27;;;;;;;2.91;1.47;;;;;;;21.81;63.51;100527.55;464017;110;930572;-80
2021/07/07 01:15:32;;;;;;;6.00;1.82;;;;;;;21.81;63.43;100530.32;463122;111;930706;-79
2021/07/07 01:16:36;;;;;;;2.84;1.70;;;;;;;21.82;63.18;100533.93;463409;110;923039;-80
2021/07/07 01:17:40;;;;;;;2.42;1.72;;;;;;;21.79;63.08;100527.00;461835;113;924097;-78
2021/07/07 01:18:44;;;;;;;2.95;1.54;;;;;;;21.78;63.15;100533.66;462306;113;924097;-81
2021/07/07 01:19:48;;;;;;;2.33;1.14;;;;;;;21.76;63.17;100522.04;463057;113;924693;-79
2021/07/07 01:20:52;;;;;;;5.36;1.77;;;;;;;21.76;63.30;100529.53;462207;113;932154;-80
2021/07/07 01:21:56;;;;;;;2.12;1.44;;;;;;;21.75;63.44;100527.88;453418;114;925620;-81
2021/07/07 01:22:59;;;;;;;3.98;1.62;;;;;;;21.75;63.61;100530.65;453675;113;930948;-80
2021/07/07 01:24:03;;;;;;;1.98;1.13;;;;;;;21.76;63.43;100523.98;462126;111;931767;-80
2021/07/07 01:25:09;;;;;;;1.59;1.32;;;;;;;21.75;63.31;100528.70;462235;113;931787;-82
2021/07/07 01:26:14;;;;;;;3.69;1.21;;;;;;;21.76;63.36;100530.36;463947;111;924500;-78
2021/07/07 01:27:18;;;;;;;1.97;1.35;;;;;;;21.77;63.32;100525.65;461836;111;928453;-80
2021/07/07 01:28:22;;;;;;;2.74;1.32;;;;;;;21.78;63.32;100528.11;462533;113;931657;-80
2021/07/07 01:29:25;;;;;;;5.02;1.49;;;;;;;21.79;63.24;100535.33;463845;111;932464;-81
2021/07/07 01:30:30;;;;;;;3.11;1.58;;;;;;;21.79;63.16;100527.00;462872;111;924531;-81
2021/07/07 01:31:34;;;;;;;2.63;1.37;;;;;;;21.80;62.95;100530.60;463383;113;923980;-81
2021/07/07 01:32:37;;;;;;;3.59;2.56;;;;;;;21.79;63.09;100528.94;463507;112;924195;-81
2021/07/07 01:33:41;;;;;;;3.15;1.61;;;;;;;21.77;63.19;100526.48;462806;113;925737;-79
2021/07/07 01:34:45;;;;;;;2.26;1.61;;;;;;;21.78;63.00;100528.11;462382;113;931854;-80
2021/07/07 01:35:49;;;;;;;2.99;1.55;;;;;;;21.75;62.89;100520.38;462248;110;931850;-80
2021/07/07 01:36:53;;;;;;;2.49;1.70;;;;;;;21.75;63.03;100522.32;462727;113;922549;-77
2021/07/07 01:37:57;;;;;;;3.73;1.68;;;;;;;21.74;63.05;100531.77;462985;111;930348;-79
2021/07/07 01:39:01;;;;;;;2.32;1.39;;;;;;;21.74;62.95;100528.98;460920;113;922837;-79
2021/07/07 01:40:06;;;;;;;2.23;1.44;;;;;;;21.74;62.90;100532.59;461181;113;930285;-79
2021/07/07 01:41:10;;;;;;;2.59;1.46;;;;;;;21.75;62.83;100533.42;463641;111;922589;-78
2021/07/07 01:42:13;;;;;;;2.45;1.31;;;;;;;21.76;62.87;100532.31;461882;111;924748;-78
2021/07/07 01:43:17;;;;;;;2.04;1.22;;;;;;;21.75;62.89;100528.70;462162;113;924104;-78
2021/07/07 01:44:20;;;;;;;1.82;1.37;;;;;;;21.74;62.85;100526.20;462306;110;931580;-78
2021/07/07 01:45:26;;;;;;;2.42;1.46;;;;;;;21.74;62.85;100526.20;461688;111;933722;-79
2021/07/07 01:46:30;;;;;;;2.71;1.61;;;;;;;21.75;62.89;100530.65;462921;111;922534;-79
2021/07/07 01:47:34;;;;;;;3.24;2.51;;;;;;;21.75;62.85;100533.42;461779;109;924003;-79
2021/07/07 01:48:38;;;;;;;2.98;1.85;;;;;;;21.75;62.79;100528.70;463526;111;924048;-79
2021/07/07 01:49:42;;;;;;;4.91;1.42;;;;;;;21.77;62.60;100531.20;462198;113;924066;-77
2021/07/07 01:50:47;;;;;;;3.47;1.36;;;;;;;21.78;62.54;100532.83;462960;111;931866;-78
2021/07/07 01:51:50;;;;;;;3.48;1.43;;;;;;;21.78;62.59;100530.89;463012;113;925295;-78
2021/07/07 01:52:55;;;;;;;2.55;1.06;;;;;;;21.78;62.54;100536.44;464339;111;924339;-79
2021/07/07 01:53:59;;;;;;;2.25;1.51;;;;;;;21.78;62.45;100530.89;462366;111;931692;-79
2021/07/07 01:55:06;;;;;;;1.56;1.26;;;;;;;21.81;62.39;100529.48;462585;113;923409;-79
2021/07/07 01:56:10;;;;;;;2.41;1.19;;;;;;;21.81;62.29;100538.65;461760;113;922546;-80
2021/07/07 01:57:14;;;;;;;2.14;1.34;;;;;;;21.81;62.17;100538.65;452687;114;922570;-79
2021/07/07 01:58:18;;;;;;;3.75;1.44;;;;;;;21.81;62.20;100535.87;453500;113;922619;-79
2021/07/07 01:59:21;;;;;;;2.14;1.41;;;;;;;21.80;62.25;100534.21;463276;113;923048;-79
2021/07/07 02:00:31;;;;;;;1.80;1.43;;;;;;;21.81;62.17;100538.65;462224;113;930137;-78
2021/07/07 02:01:34;;;;;;;2.46;1.68;;;;;;;21.80;62.04;100531.44;462378;113;922620;-78
2021/07/07 02:02:39;;;;;;;4.93;1.54;;;;;;;21.77;62.10;100540.36;462521;110;922410;-80
2021/07/07 02:03:42;;;;;;;3.55;1.34;;;;;;;21.74;62.08;100531.77;462180;113;922431;-78
2021/07/07 02:04:46;;;;;;;1.56;1.32;;;;;;;21.73;62.12;100530.93;462993;111;922426;-79
2021/07/07 02:05:50;;;;;;;3.68;1.59;;;;;;;21.70;62.17;100530.69;462378;110;922780;-79
2021/07/07 02:06:53;;;;;;;4.27;1.41;;;;;;;21.69;62.30;100537.35;457474;113;930284;-79
2021/07/07 02:08:01;;;;;;;2.14;1.13;;;;;;;21.67;62.33;100532.08;457975;113;924103;-79
2021/07/07 02:09:07;;;;;;;2.09;1.40;;;;;;;21.67;62.31;100532.08;462431;113;924502;-79
2021/07/07 02:10:13;;;;;;;2.94;1.08;;;;;;;21.66;62.35;100538.78;463317;111;924087;-78
2021/07/07 02:11:17;;;;;;;2.78;1.38;;;;;;;21.66;62.42;100526.84;455047;112;924046;-79
2021/07/07 02:12:20;;;;;;;2.29;1.29;;;;;;;21.65;62.57;100534.34;454217;113;924112;-78
2021/07/07 02:13:24;;;;;;;2.92;1.14;;;;;;;21.65;62.53;100542.66;450697;116;926254;-79
2021/07/07 02:14:28;;;;;;;5.45;1.29;;;;;;;21.65;62.30;100534.34;463227;112;926791;-79
2021/07/07 02:15:33;;;;;;;3.47;1.53;;;;;;;21.64;62.26;100535.45;464078;111;932011;-78
2021/07/07 02:16:38;;;;;;;3.15;1.41;;;;;;;21.62;62.14;100532.13;462905;113;923734;-79
2021/07/07 02:17:43;;;;;;;2.37;1.10;;;;;;;21.61;62.17;100538.82;462756;111;922517;-83
2021/07/07 02:18:48;;;;;;;2.57;1.35;;;;;;;21.60;62.23;100537.98;452722;113;931264;-80
2021/07/07 02:19:51;;;;;;;2.11;1.14;;;;;;;21.58;62.25;100534.66;454470;113;925822;-78
2021/07/07 02:20:55;;;;;;;5.09;1.31;;;;;;;21.58;62.37;100539.38;463345;113;931739;-79
2021/07/07 02:21:59;;;;;;;1.64;1.15;;;;;;;21.59;62.50;100544.65;461995;113;925385;-78
2021/07/07 02:23:03;;;;;;;1.82;1.15;;;;;;;21.61;62.41;100541.59;462912;113;931766;-78
2021/07/07 02:24:07;;;;;;;4.48;1.42;;;;;;;21.61;62.14;100541.59;462303;111;931696;-81
2021/07/07 02:25:23;;;;;;;2.57;1.59;;;;;;;21.61;62.26;100538.82;462976;110;923874;-79
2021/07/07 02:26:27;;;;;;;2.21;1.18;;;;;;;21.61;62.30;100542.39;463415;111;924063;-79
2021/07/07 02:27:31;;;;;;;4.08;1.18;;;;;;;21.62;62.12;100537.67;463175;113;924076;-78
2021/07/07 02:28:35;;;;;;;3.58;1.59;;;;;;;21.63;62.20;100544.89;462237;111;926216;-79
2021/07/07 02:29:38;;;;;;;5.88;1.43;;;;;;;21.64;62.12;100550.16;462047;113;931847;-79
2021/07/07 02:30:45;;;;;;;2.16;1.56;;;;;;;21.66;62.07;100552.66;462781;111;924529;-79
2021/07/07 02:31:49;;;;;;;2.82;1.48;;;;;;;21.66;62.08;100555.43;463948;111;934561;-79
2021/07/07 02:32:54;;;;;;;1.68;1.25;;;;;;;21.68;61.98;100549.56;463586;109;924071;-77
2021/07/07 02:33:57;;;;;;;1.84;1.23;;;;;;;21.70;61.93;100547.34;464286;111;924370;-78
2021/07/07 02:35:02;;;;;;;2.53;1.35;;;;;;;21.70;61.81;100553.72;464111;113;922958;-79
2021/07/07 02:36:07;;;;;;;2.06;1.17;;;;;;;21.72;61.79;100553.45;454919;113;924487;-78
2021/07/07 02:37:10;;;;;;;2.98;1.56;;;;;;;21.72;61.75;100547.89;462644;113;926942;-78
2021/07/07 02:38:18;;;;;;;2.49;1.09;;;;;;;21.73;61.73;100549.52;463594;113;924148;-77
2021/07/07 02:39:21;;;;;;;2.39;1.43;;;;;;;21.73;61.67;100553.13;462580;113;930069;-82
2021/07/07 02:40:29;;;;;;;5.48;1.46;;;;;;;21.73;61.63;100555.91;464590;111;922834;-82
2021/07/07 02:41:32;;;;;;;2.03;1.18;;;;;;;21.74;61.49;100556.73;463274;113;922434;-78
2021/07/07 02:42:36;;;;;;;6.53;1.04;;;;;;;21.74;61.52;100559.52;463417;110;924093;-82
2021/07/07 02:43:40;;;;;;;3.16;1.54;;;;;;;21.74;61.55;100560.34;462831;111;922646;-80
2021/07/07 02:44:44;;;;;;;5.94;1.40;;;;;;;21.74;61.57;100554.80;462597;111;930224;-79
2021/07/07 02:45:48;;;;;;;2.61;1.45;;;;;;;21.74;61.49;100554.80;462142;113;930260;-80
2021/07/07 02:46:52;;;;;;;2.24;1.28;;;;;;;21.75;61.46;100564.78;462405;113;930037;-79
2021/07/07 02:47:56;;;;;;;2.42;1.41;;;;;;;21.75;61.48;100562.01;463258;111;922580;-78
2021/07/07 02:49:01;;;;;;;4.29;1.35;;;;;;;21.78;61.54;100561.41;463033;113;922433;-78
2021/07/07 02:50:06;;;;;;;5.79;1.37;;;;;;;21.79;61.47;100551.14;463501;112;922469;-80
2021/07/07 02:51:10;;;;;;;3.56;1.17;;;;;;;21.81;61.45;100562.80;457477;113;930434;-80
2021/07/07 02:52:13;;;;;;;2.97;1.07;;;;;;;21.81;61.33;100560.86;457686;113;922486;-80
2021/07/07 02:53:18;;;;;;;4.32;1.24;;;;;;;21.82;61.22;100562.52;462741;113;930625;-80
2021/07/07 02:54:23;;;;;;;4.77;1.37;;;;;;;21.81;61.19;100558.08;458844;114;923992;-80
2021/07/07 02:55:27;;;;;;;3.18;1.06;;;;;;;21.81;61.17;100562.80;458734;113;924140;-79
2021/07/07 02:56:33;;;;;;;5.42;1.38;;;;;;;21.82;61.14;100559.74;451819;115;930911;-80
2021/07/07 02:58:59;;;;;;;2.51;1.28;;;;;;;21.84;61.07;100553.88;463182;112;924013;-80
2021/07/07 03:00:04;;;;;;;5.36;1.42;;;;;;;21.86;61.07;100562.75;462952;111;924000;-80
2021/07/07 03:01:08;;;;;;;6.80;1.27;;;;;;;21.87;61.11;100561.64;463066;113;922528;-80
2021/07/07 03:02:11;;;;;;;2.54;1.15;;;;;;;21.88;60.87;100560.53;463731;113;922496;-79
2021/07/07 03:03:21;;;;;;;1.66;1.13;;;;;;;21.87;60.86;100559.70;464006;113;926184;-79
2021/07/07 03:04:25;;;;;;;2.00;1.23;;;;;;;21.88;60.84;100566.91;463771;113;924092;-80
2021/07/07 03:05:31;;;;;;;7.04;1.59;;;;;;;21.88;60.83;100566.91;455541;113;924696;-79
2021/07/07 03:06:34;;;;;;;3.96;1.34;;;;;;;21.90;60.89;100570.20;458852;113;924053;-80
2021/07/07 03:07:39;;;;;;;2.18;1.24;;;;;;;21.92;60.75;100567.15;462199;112;924351;-79
2021/07/07 03:08:43;;;;;;;3.68;1.39;;;;;;;21.94;60.72;100570.48;454051;112;924506;-80
2021/07/07 03:09:47;;;;;;;3.88;1.87;;;;;;;21.94;60.75;100579.64;453795;113;924288;-80
2021/07/07 03:10:51;;;;;;;4.71;1.41;;;;;;;21.96;60.68;100582.97;462678;110;924062;-79
2021/07/07 03:11:55;;;;;;;2.27;1.54;;;;;;;21.96;60.59;100580.19;463580;113;923963;-80
2021/07/07 03:12:59;;;;;;;1.53;1.24;;;;;;;21.98;60.58;100585.46;461994;113;924050;-78
2021/07/07 03:14:02;;;;;;;2.85;1.12;;;;;;;21.99;60.52;100582.40;462658;113;931733;-79
2021/07/07 03:15:07;;;;;;;3.36;1.42;;;;;;;22.00;60.37;100584.03;462961;111;931705;-80
2021/07/07 03:16:13;;;;;;;5.96;1.77;;;;;;;22.01;60.34;100582.92;462375;113;924032;-79
2021/07/07 03:17:16;;;;;;;2.91;1.96;;;;;;;22.03;60.26;100583.47;462665;113;924063;-80
2021/07/07 03:18:21;;;;;;;2.25;1.88;;;;;;;22.05;60.23;100589.54;463819;111;924129;-78
2021/07/07 03:19:25;;;;;;;3.84;1.49;;;;;;;22.07;60.10;100591.20;464544;111;924116;-80
2021/07/07 03:20:29;;;;;;;3.12;1.64;;;;;;;22.09;60.10;100586.20;463606;111;922517;-79
2021/07/07 03:21:35;;;;;;;5.58;1.69;;;;;;;22.09;60.08;100592.58;463003;113;924091;-79
2021/07/07 03:22:39;;;;;;;4.01;2.17;;;;;;;22.09;60.05;100595.36;462911;111;924205;-79
2021/07/07 03:23:43;;;;;;;2.87;1.85;;;;;;;22.11;59.94;100592.30;461672;113;924000;-79
2021/07/07 03:24:46;;;;;;;4.05;1.85;;;;;;;22.12;59.90;100591.16;461441;113;927194;-80
2021/07/07 03:25:51;;;;;;;6.19;2.17;;;;;;;22.12;59.90;100589.22;463578;112;932033;-77
2021/07/07 03:26:55;;;;;;;1.87;1.56;;;;;;;22.13;59.89;100592.82;462604;111;930476;-80
2021/07/07 03:27:59;;;;;;;3.87;1.61;;;;;;;22.14;59.86;100597.27;462436;113;924115;-80
2021/07/07 03:29:03;;;;;;;3.67;1.12;;;;;;;22.16;59.91;100597.81;461832;111;931651;-79
2021/07/07 03:30:08;;;;;;;5.89;2.03;;;;;;;22.18;59.99;100598.33;463504;110;922480;-80
2021/07/07 03:31:12;;;;;;;4.18;1.62;;;;;;;22.20;59.93;100596.09;462728;113;922490;-80
2021/07/07 03:32:16;;;;;;;4.12;1.75;;;;;;;22.22;59.91;100599.42;462324;113;923055;-80
2021/07/07 03:33:20;;;;;;;3.05;1.85;;;;;;;22.23;59.88;100609.39;462001;111;930297;-79
2021/07/07 03:34:24;;;;;;;4.08;1.57;;;;;;;22.24;59.83;100602.72;462746;111;922439;-80
2021/07/07 03:35:28;;;;;;;3.11;1.50;;;;;;;22.26;59.91;100603.27;462314;111;925933;-80
2021/07/07 03:36:34;;;;;;;2.42;1.59;;;;;;;22.26;59.96;100604.10;462239;110;931726;-80
2021/07/07 03:37:38;;;;;;;5.16;1.81;;;;;;;22.28;59.95;100606.56;462844;111;924077;-79
2021/07/07 03:38:43;;;;;;;2.82;1.55;;;;;;;22.29;59.87;100605.45;461795;111;924207;-78
2021/07/07 03:39:47;;;;;;;2.68;1.30;;;;;;;22.29;59.85;100606.28;464756;113;925832;-79
2021/07/07 03:40:51;;;;;;;7.07;1.60;;;;;;;22.31;59.67;100609.61;463476;111;924093;-80
2021/07/07 03:41:55;;;;;;;2.71;1.48;;;;;;;22.32;59.73;100608.49;464238;113;924486;-79
2021/07/07 03:42:59;;;;;;;4.87;1.85;;;;;;;22.33;59.81;100612.07;450107;113;931942;-79
2021/07/07 03:44:03;;;;;;;2.36;1.70;;;;;;;22.33;59.76;100610.13;464628;111;930495;-80
2021/07/07 03:45:09;;;;;;;2.42;1.51;;;;;;;22.35;59.73;100615.40;462911;111;930282;-78
2021/07/07 03:46:13;;;;;;;3.64;1.69;;;;;;;22.34;59.67;100614.56;463376;113;922506;-80
2021/07/07 03:47:16;;;;;;;1.74;1.60;;;;;;;22.35;59.68;100610.67;463488;111;922820;-80
2021/07/07 03:48:21;;;;;;;3.04;1.54;;;;;;;22.36;59.58;100615.11;461450;110;922466;-78
2021/07/07 03:49:25;;;;;;;3.15;1.48;;;;;;;22.36;59.53;100611.50;463652;111;930426;-80
2021/07/07 03:50:30;;;;;;;3.32;1.37;;;;;;;22.36;59.38;100620.67;463318;110;922648;-79
2021/07/07 03:51:34;;;;;;;3.44;1.86;;;;;;;22.36;59.32;100614.28;463224;113;922966;-79
2021/07/07 03:52:40;;;;;;;3.63;1.61;;;;;;;22.36;59.41;100620.67;463135;110;924077;-78
2021/07/07 03:53:44;;;;;;;4.14;1.43;;;;;;;22.38;59.50;100620.39;464052;113;922605;-78
2021/07/07 03:54:49;;;;;;;2.81;1.52;;;;;;;22.39;59.29;100619.23;463290;110;922690;-80
2021/07/07 03:55:52;;;;;;;5.66;1.90;;;;;;;22.39;59.23;100620.07;462859;111;923890;-79
2021/07/07 03:56:56;;;;;;;4.55;1.68;;;;;;;22.39;59.36;100622.02;462034;111;922714;-80
2021/07/07 03:58:01;;;;;;;4.39;1.86;;;;;;;22.40;59.33;100626.46;463481;113;924037;-78
2021/07/07 03:59:05;;;;;;;2.81;1.74;;;;;;;22.41;59.26;100625.34;462706;113;925489;-79
2021/07/07 04:00:13;;;;;;;3.31;2.68;;;;;;;22.42;59.35;100627.84;462274;111;924075;-80
2021/07/07 04:01:17;;;;;;;4.32;2.17;;;;;;;22.44;59.18;100621.97;442966;117;924041;-78
2021/07/07 04:02:21;;;;;;;3.05;1.29;;;;;;;22.46;59.03;100622.52;454744;113;924081;-80
2021/07/07 04:03:25;;;;;;;3.96;1.37;;;;;;;22.46;58.62;100626.13;463840;111;924516;-79
2021/07/07 04:04:28;;;;;;;6.99;2.45;;;;;;;22.47;58.51;100629.73;463629;111;924011;-79
2021/07/07 04:05:32;;;;;;;4.96;1.54;;;;;;;22.46;58.52;100628.91;463806;111;923927;-79
2021/07/07 04:06:39;;;;;;;3.15;1.44;;;;;;;22.48;58.59;100625.01;464251;111;925469;-81
2021/07/07 04:07:43;;;;;;;3.09;1.52;;;;;;;22.49;58.60;100623.89;465117;111;925135;-80
2021/07/07 04:08:48;;;;;;;4.83;1.26;;;;;;;22.50;58.68;100625.52;463827;111;930229;-80
2021/07/07 04:09:51;;;;;;;4.27;1.64;;;;;;;22.51;58.68;100630.80;462684;113;924049;-78
2021/07/07 04:10:55;;;;;;;4.26;1.19;;;;;;;22.53;58.62;100622.18;463176;110;932833;-79
2021/07/07 04:12:01;;;;;;;1.82;1.24;;;;;;;22.56;58.56;100632.70;463176;111;923994;-80
2021/07/07 04:13:07;;;;;;;4.64;1.50;;;;;;;22.58;58.38;100627.69;463941;111;923490;-81
2021/07/07 04:14:10;;;;;;;3.26;1.29;;;;;;;22.57;58.58;100623.24;461788;113;924054;-79
2021/07/07 04:15:15;;;;;;;3.49;0.98;;;;;;;22.58;58.67;100628.52;462683;113;924624;-79
2021/07/07 04:16:19;;;;;;;2.56;1.44;;;;;;;22.60;58.78;100634.63;462581;111;923086;-80
2021/07/07 04:17:23;;;;;;;4.78;1.74;;;;;;;22.61;58.70;100635.42;462487;113;922580;-78
2021/07/07 04:18:27;;;;;;;1.80;1.17;;;;;;;22.63;58.55;100628.46;461966;113;922901;-80
2021/07/07 04:19:31;;;;;;;3.13;1.49;;;;;;;22.65;58.46;100631.78;463154;111;931708;-80
2021/07/07 04:20:36;;;;;;;6.94;1.39;;;;;;;22.68;58.33;100628.41;463162;112;926391;-80
2021/07/07 04:21:40;;;;;;;3.41;1.67;;;;;;;22.72;58.21;100639.78;463540;111;922471;-80
2021/07/07 04:22:44;;;;;;;5.71;1.45;;;;;;;22.73;58.25;100639.50;461769;113;922503;-78
2021/07/07 04:23:48;;;;;;;6.74;2.05;;;;;;;22.75;58.31;100634.48;461887;111;924073;-80
2021/07/07 04:24:52;;;;;;;3.35;1.81;;;;;;;22.79;58.08;100634.72;463672;110;925269;-79
2021/07/07 04:25:57;;;;;;;2.58;1.35;;;;;;;22.81;57.89;100644.44;463733;110;924570;-81
2021/07/07 04:27:01;;;;;;;3.01;1.48;;;;;;;22.84;57.77;100634.66;464985;110;926141;-80
2021/07/07 04:28:13;;;;;;;3.97;1.59;;;;;;;22.85;57.74;100634.38;464087;110;924738;-80
2021/07/07 04:29:18;;;;;;;3.88;1.30;;;;;;;22.88;57.72;100633.77;463003;110;922683;-81
2021/07/07 04:30:24;;;;;;;4.73;1.47;;;;;;;22.92;57.71;100633.19;462706;110;922518;-81
2021/07/07 04:31:28;;;;;;;3.85;1.30;;;;;;;22.94;57.56;100640.09;462653;113;922796;-81
2021/07/07 04:32:32;;;;;;;2.61;1.24;;;;;;;22.95;57.44;100640.93;464448;110;922692;-80
2021/07/07 04:33:36;;;;;;;2.31;1.14;;;;;;;22.97;57.33;100635.91;454894;113;922648;-80
2021/07/07 04:34:39;;;;;;;3.78;1.46;;;;;;;23.00;57.51;100635.31;454912;113;930190;-80
2021/07/07 04:35:43;;;;;;;5.03;1.40;;;;;;;23.00;57.51;100635.31;463327;110;930510;-80
2021/07/07 04:36:52;;;;;;;5.76;1.47;;;;;;;23.00;57.19;100636.14;463715;110;930370;-81
2021/07/07 04:38:01;;;;;;;4.17;1.66;;;;;;;23.02;57.04;100646.98;463485;110;923327;-81
2021/07/07 04:39:09;;;;;;;4.18;1.33;;;;;;;23.03;57.04;100641.13;461544;113;930566;-80
2021/07/07 04:40:16;;;;;;;4.03;1.45;;;;;;;23.04;57.16;100641.95;464712;110;923317;-81
2021/07/07 04:41:20;;;;;;;5.28;1.51;;;;;;;23.06;57.27;100645.25;463191;111;922660;-80
2021/07/07 04:42:27;;;;;;;3.08;1.32;;;;;;;23.07;57.43;100644.13;462562;110;923075;-80
2021/07/07 04:43:29;;;;;;;3.86;1.34;;;;;;;23.06;57.39;100654.42;461888;110;930232;-79
2021/07/07 04:44:32;;;;;;;3.67;1.09;;;;;;;23.06;57.08;100648.86;462498;110;924176;-81
2021/07/07 04:45:36;;;;;;;5.06;2.13;;;;;;;23.05;57.01;100651.94;463618;110;931707;-82
2021/07/07 04:46:41;;;;;;;3.89;1.25;;;;;;;23.04;56.90;100655.86;463532;110;924085;-82
2021/07/07 04:47:45;;;;;;;6.29;1.34;;;;;;;23.04;56.96;100658.64;462886;113;924045;-83
2021/07/07 04:48:49;;;;;;;3.01;1.38;;;;;;;23.05;57.00;100657.50;463238;113;931780;-81
2021/07/07 04:49:53;;;;;;;5.49;1.48;;;;;;;23.06;57.04;100656.38;464159;111;924508;-83
2021/07/07 04:50:57;;;;;;;4.59;1.41;;;;;;;23.07;57.20;100660.82;463580;111;924429;-80
2021/07/07 04:52:00;;;;;;;3.87;1.39;;;;;;;23.08;57.27;100666.09;463779;113;924090;-81
2021/07/07 04:53:04;;;;;;;5.42;1.48;;;;;;;23.08;57.33;100663.31;463746;110;931730;-82
2021/07/07 04:54:08;;;;;;;3.15;1.46;;;;;;;23.11;57.27;100670.22;463025;111;927248;-84
2021/07/07 04:55:13;;;;;;;4.56;1.55;;;;;;;23.11;57.17;100668.27;464093;113;924598;-82
2021/07/07 04:56:17;;;;;;;3.22;1.37;;;;;;;23.13;57.12;100670.77;459246;114;925487;-82
2021/07/07 04:57:21;;;;;;;2.46;1.39;;;;;;;23.15;57.19;100668.53;459179;113;923911;-82